sensor_id;sensor_type;location;lat;lon;timestamp;temperature;humidity
2463;DHT22;1243;54.298;10.172;2023-06-10T00:02:08;13.00;99.90
2463;DHT22;1243;54.298;10.172;2023-06-10T00:04:34;13.10;99.90
2463;DHT22;1243;54.298;10.172;2023-06-10T00:07:04;13.10;99.90
2463;DHT22;1243;54.298;10.172;2023-06-10T00:09:37;13.10;99.90
2463;DHT22;1243;54.298;10.172;2023-06-10T00:12:07;13.00;99.90
2463;DHT22;1243;54.298;10.172;2023-06-10T00:14:37;13.00;99.90
2463;DHT22;1243;54.298;10.172;2023-06-10T00:17:03;13.00;99.90
2463;DHT22;1243;54.298;10.172;2023-06-10T00:19:28;13.10;99.90
2463;DHT22;1243;54.298;10.172;2023-06-10T00:21:56;13.00;99.90
2463;DHT22;1243;54.298;10.172;2023-06-10T00:24:22;13.00;99.90
2463;DHT22;1243;54.298;10.172;2023-06-10T00:26:48;13.00;99.90
2463;DHT22;1243;54.298;10.172;2023-06-10T00:29:14;13.00;99.90
2463;DHT22;1243;54.298;10.172;2023-06-10T00:31:40;13.00;99.90
2463;DHT22;1243;54.298;10.172;2023-06-10T00:34:07;13.00;99.90
2463;DHT22;1243;54.298;10.172;2023-06-10T00:36:33;13.00;99.90
2463;DHT22;1243;54.298;10.172;2023-06-10T00:38:59;13.00;99.90
2463;DHT22;1243;54.298;10.172;2023-06-10T00:41:25;12.90;99.90
2463;DHT22;1243;54.298;10.172;2023-06-10T00:43:54;12.90;99.90
2463;DHT22;1243;54.298;10.172;2023-06-10T00:46:21;12.90;99.90
2463;DHT22;1243;54.298;10.172;2023-06-10T00:48:47;12.90;99.90
2463;DHT22;1243;54.298;10.172;2023-06-10T00:51:13;12.90;99.90
2463;DHT22;1243;54.298;10.172;2023-06-10T00:53:40;12.90;99.90
2463;DHT22;1243;54.298;10.172;2023-06-10T00:56:07;12.90;99.90
2463;DHT22;1243;54.298;10.172;2023-06-10T00:58:33;12.90;99.90
2463;DHT22;1243;54.298;10.172;2023-06-10T01:00:59;12.90;99.90
2463;DHT22;1243;54.298;10.172;2023-06-10T01:03:25;12.90;99.90
2463;DHT22;1243;54.298;10.172;2023-06-10T01:08:56;12.80;99.90
2463;DHT22;1243;54.298;10.172;2023-06-10T01:11:29;12.80;99.90
2463;DHT22;1243;54.298;10.172;2023-06-10T01:14:00;12.80;99.90
2463;DHT22;1243;54.298;10.172;2023-06-10T01:16:26;12.80;99.90
2463;DHT22;1243;54.298;10.172;2023-06-10T01:18:53;12.80;99.90
2463;DHT22;1243;54.298;10.172;2023-06-10T01:21:21;12.80;99.90
2463;DHT22;1243;54.298;10.172;2023-06-10T01:23:51;12.80;99.90
2463;DHT22;1243;54.298;10.172;2023-06-10T01:26:17;12.80;99.90
2463;DHT22;1243;54.298;10.172;2023-06-10T01:28:48;12.90;99.90
2463;DHT22;1243;54.298;10.172;2023-06-10T01:31:38;12.80;99.90
2463;DHT22;1243;54.298;10.172;2023-06-10T01:34:10;12.80;99.90
2463;DHT22;1243;54.298;10.172;2023-06-10T01:36:36;12.80;99.90
2463;DHT22;1243;54.298;10.172;2023-06-10T01:39:04;12.80;99.90
2463;DHT22;1243;54.298;10.172;2023-06-10T01:41:31;12.70;99.90
2463;DHT22;1243;54.298;10.172;2023-06-10T01:43:57;12.70;99.90
2463;DHT22;1243;54.298;10.172;2023-06-10T01:46:23;12.70;99.90
2463;DHT22;1243;54.298;10.172;2023-06-10T01:48:48;12.70;99.90
2463;DHT22;1243;54.298;10.172;2023-06-10T01:51:14;12.70;99.90
2463;DHT22;1243;54.298;10.172;2023-06-10T01:53:40;12.80;99.90
2463;DHT22;1243;54.298;10.172;2023-06-10T01:56:06;12.70;99.90
2463;DHT22;1243;54.298;10.172;2023-06-10T01:58:32;12.70;99.90
2463;DHT22;1243;54.298;10.172;2023-06-10T02:00:57;12.70;99.90
2463;DHT22;1243;54.298;10.172;2023-06-10T02:03:23;12.70;99.90
2463;DHT22;1243;54.298;10.172;2023-06-10T02:05:49;12.70;99.90
2463;DHT22;1243;54.298;10.172;2023-06-10T02:08:14;12.60;99.90
2463;DHT22;1243;54.298;10.172;2023-06-10T02:10:40;12.60;99.90
2463;DHT22;1243;54.298;10.172;2023-06-10T02:13:06;12.60;99.90
2463;DHT22;1243;54.298;10.172;2023-06-10T02:15:32;12.60;99.90
2463;DHT22;1243;54.298;10.172;2023-06-10T02:17:58;12.60;99.90
2463;DHT22;1243;54.298;10.172;2023-06-10T02:20:24;12.60;99.90
2463;DHT22;1243;54.298;10.172;2023-06-10T02:22:50;12.50;99.90
2463;DHT22;1243;54.298;10.172;2023-06-10T02:25:15;12.50;99.90
2463;DHT22;1243;54.298;10.172;2023-06-10T02:27:41;12.50;99.90
2463;DHT22;1243;54.298;10.172;2023-06-10T02:30:07;12.50;99.90
2463;DHT22;1243;54.298;10.172;2023-06-10T02:32:35;12.50;99.90
2463;DHT22;1243;54.298;10.172;2023-06-10T02:35:00;12.60;99.90
2463;DHT22;1243;54.298;10.172;2023-06-10T02:37:27;12.50;99.90
2463;DHT22;1243;54.298;10.172;2023-06-10T02:39:52;12.50;99.90
2463;DHT22;1243;54.298;10.172;2023-06-10T02:42:18;12.60;99.90
2463;DHT22;1243;54.298;10.172;2023-06-10T02:44:44;12.60;99.90
2463;DHT22;1243;54.298;10.172;2023-06-10T02:47:10;12.60;99.90
2463;DHT22;1243;54.298;10.172;2023-06-10T02:49:36;12.60;99.90
2463;DHT22;1243;54.298;10.172;2023-06-10T02:52:02;12.70;99.90
2463;DHT22;1243;54.298;10.172;2023-06-10T02:54:28;12.60;99.90
2463;DHT22;1243;54.298;10.172;2023-06-10T02:56:54;12.70;99.90
2463;DHT22;1243;54.298;10.172;2023-06-10T02:59:21;12.60;99.90
2463;DHT22;1243;54.298;10.172;2023-06-10T03:01:47;12.60;99.90
2463;DHT22;1243;54.298;10.172;2023-06-10T03:04:13;12.60;99.90
2463;DHT22;1243;54.298;10.172;2023-06-10T03:06:41;12.60;99.90
2463;DHT22;1243;54.298;10.172;2023-06-10T03:09:07;12.70;99.90
2463;DHT22;1243;54.298;10.172;2023-06-10T03:11:33;12.70;99.90
2463;DHT22;1243;54.298;10.172;2023-06-10T03:13:59;12.70;99.90
2463;DHT22;1243;54.298;10.172;2023-06-10T03:16:25;12.70;99.90
2463;DHT22;1243;54.298;10.172;2023-06-10T03:18:51;12.70;99.90
2463;DHT22;1243;54.298;10.172;2023-06-10T03:21:16;12.70;99.90
2463;DHT22;1243;54.298;10.172;2023-06-10T03:23:42;12.80;99.90
2463;DHT22;1243;54.298;10.172;2023-06-10T03:26:08;12.80;99.90
2463;DHT22;1243;54.298;10.172;2023-06-10T03:28:35;12.80;99.90
2463;DHT22;1243;54.298;10.172;2023-06-10T03:31:01;12.80;99.90
2463;DHT22;1243;54.298;10.172;2023-06-10T03:33:27;12.90;99.90
2463;DHT22;1243;54.298;10.172;2023-06-10T03:35:52;12.90;99.90
2463;DHT22;1243;54.298;10.172;2023-06-10T03:38:18;13.00;96.70
2463;DHT22;1243;54.298;10.172;2023-06-10T03:40:44;13.10;93.20
2463;DHT22;1243;54.298;10.172;2023-06-10T03:43:10;13.00;93.10
2463;DHT22;1243;54.298;10.172;2023-06-10T03:45:36;13.00;93.20
2463;DHT22;1243;54.298;10.172;2023-06-10T03:48:02;13.00;93.10
2463;DHT22;1243;54.298;10.172;2023-06-10T03:50:29;13.00;93.20
2463;DHT22;1243;54.298;10.172;2023-06-10T03:52:54;13.10;93.20
2463;DHT22;1243;54.298;10.172;2023-06-10T03:55:20;13.10;93.20
2463;DHT22;1243;54.298;10.172;2023-06-10T03:57:47;13.20;93.20
2463;DHT22;1243;54.298;10.172;2023-06-10T04:00:14;13.20;93.20
2463;DHT22;1243;54.298;10.172;2023-06-10T04:02:41;13.20;93.20
2463;DHT22;1243;54.298;10.172;2023-06-10T04:05:12;13.20;92.60
2463;DHT22;1243;54.298;10.172;2023-06-10T04:07:37;13.20;93.20
2463;DHT22;1243;54.298;10.172;2023-06-10T04:10:07;13.30;93.30
2463;DHT22;1243;54.298;10.172;2023-06-10T04:12:32;13.30;92.20
2463;DHT22;1243;54.298;10.172;2023-06-10T04:14:58;13.30;93.00
2463;DHT22;1243;54.298;10.172;2023-06-10T04:17:25;13.30;92.10
2463;DHT22;1243;54.298;10.172;2023-06-10T04:19:51;13.40;93.20
2463;DHT22;1243;54.298;10.172;2023-06-10T04:22:18;13.40;91.50
2463;DHT22;1243;54.298;10.172;2023-06-10T04:24:44;13.40;86.10
2463;DHT22;1243;54.298;10.172;2023-06-10T04:27:09;13.50;82.70
2463;DHT22;1243;54.298;10.172;2023-06-10T04:29:35;13.60;82.60
2463;DHT22;1243;54.298;10.172;2023-06-10T04:32:01;13.60;79.10
2463;DHT22;1243;54.298;10.172;2023-06-10T04:34:28;13.60;73.90
2463;DHT22;1243;54.298;10.172;2023-06-10T04:36:54;13.70;69.60
2463;DHT22;1243;54.298;10.172;2023-06-10T04:39:19;13.70;59.00
2463;DHT22;1243;54.298;10.172;2023-06-10T04:41:45;13.80;52.60
2463;DHT22;1243;54.298;10.172;2023-06-10T04:44:12;13.80;48.60
2463;DHT22;1243;54.298;10.172;2023-06-10T04:46:39;13.80;40.00
2463;DHT22;1243;54.298;10.172;2023-06-10T04:49:04;13.90;35.30
2463;DHT22;1243;54.298;10.172;2023-06-10T04:51:31;14.00;32.80
2463;DHT22;1243;54.298;10.172;2023-06-10T04:53:57;14.10;27.10
2463;DHT22;1243;54.298;10.172;2023-06-10T04:56:25;14.10;20.70
2463;DHT22;1243;54.298;10.172;2023-06-10T04:58:51;14.20;17.20
2463;DHT22;1243;54.298;10.172;2023-06-10T05:01:16;14.20;9.60
2463;DHT22;1243;54.298;10.172;2023-06-10T05:03:42;14.20;6.60
2463;DHT22;1243;54.298;10.172;2023-06-10T05:06:07;14.30;6.50
2463;DHT22;1243;54.298;10.172;2023-06-10T05:08:33;14.40;4.30
2463;DHT22;1243;54.298;10.172;2023-06-10T05:10:59;14.50;2.90
2463;DHT22;1243;54.298;10.172;2023-06-10T05:13:25;14.50;1.00
2463;DHT22;1243;54.298;10.172;2023-06-10T05:15:50;14.50;1.00
2463;DHT22;1243;54.298;10.172;2023-06-10T05:18:16;14.50;1.00
2463;DHT22;1243;54.298;10.172;2023-06-10T05:20:42;14.50;1.00
2463;DHT22;1243;54.298;10.172;2023-06-10T05:23:07;14.60;1.00
2463;DHT22;1243;54.298;10.172;2023-06-10T05:25:33;14.70;1.00
2463;DHT22;1243;54.298;10.172;2023-06-10T05:27:59;14.80;1.00
2463;DHT22;1243;54.298;10.172;2023-06-10T05:30:25;14.80;1.00
2463;DHT22;1243;54.298;10.172;2023-06-10T05:32:52;14.80;1.00
2463;DHT22;1243;54.298;10.172;2023-06-10T05:35:18;15.00;1.00
2463;DHT22;1243;54.298;10.172;2023-06-10T05:37:44;15.00;1.00
2463;DHT22;1243;54.298;10.172;2023-06-10T05:40:10;15.10;1.00
2463;DHT22;1243;54.298;10.172;2023-06-10T05:42:36;15.10;1.00
2463;DHT22;1243;54.298;10.172;2023-06-10T05:45:02;15.20;1.00
2463;DHT22;1243;54.298;10.172;2023-06-10T05:47:28;15.10;1.00
2463;DHT22;1243;54.298;10.172;2023-06-10T05:49:55;15.10;1.00
2463;DHT22;1243;54.298;10.172;2023-06-10T05:52:21;15.10;1.00
2463;DHT22;1243;54.298;10.172;2023-06-10T05:54:46;15.20;1.00
2463;DHT22;1243;54.298;10.172;2023-06-10T05:57:12;15.20;1.00
2463;DHT22;1243;54.298;10.172;2023-06-10T05:59:38;15.30;1.00
2463;DHT22;1243;54.298;10.172;2023-06-10T06:02:04;15.40;1.00
2463;DHT22;1243;54.298;10.172;2023-06-10T06:04:30;15.40;1.00
2463;DHT22;1243;54.298;10.172;2023-06-10T06:06:57;15.40;1.00
2463;DHT22;1243;54.298;10.172;2023-06-10T06:09:23;15.50;1.00
2463;DHT22;1243;54.298;10.172;2023-06-10T06:11:48;15.40;1.00
2463;DHT22;1243;54.298;10.172;2023-06-10T06:14:14;15.40;1.00
2463;DHT22;1243;54.298;10.172;2023-06-10T06:16:40;15.50;1.00
2463;DHT22;1243;54.298;10.172;2023-06-10T06:19:06;15.50;1.00
2463;DHT22;1243;54.298;10.172;2023-06-10T06:21:31;15.60;1.00
2463;DHT22;1243;54.298;10.172;2023-06-10T06:23:57;15.70;1.00
2463;DHT22;1243;54.298;10.172;2023-06-10T06:26:23;15.70;1.00
2463;DHT22;1243;54.298;10.172;2023-06-10T06:28:49;15.70;1.00
2463;DHT22;1243;54.298;10.172;2023-06-10T06:31:15;15.70;1.00
2463;DHT22;1243;54.298;10.172;2023-06-10T06:33:40;15.70;1.00
2463;DHT22;1243;54.298;10.172;2023-06-10T06:36:06;15.70;1.00
2463;DHT22;1243;54.298;10.172;2023-06-10T06:38:32;15.70;1.00
2463;DHT22;1243;54.298;10.172;2023-06-10T06:40:57;15.80;1.00
2463;DHT22;1243;54.298;10.172;2023-06-10T06:43:28;16.00;1.00
2463;DHT22;1243;54.298;10.172;2023-06-10T06:45:55;16.10;1.00
2463;DHT22;1243;54.298;10.172;2023-06-10T06:48:21;16.10;1.00
2463;DHT22;1243;54.298;10.172;2023-06-10T06:50:47;16.30;1.00
2463;DHT22;1243;54.298;10.172;2023-06-10T06:53:12;16.30;1.00
2463;DHT22;1243;54.298;10.172;2023-06-10T06:55:38;16.30;1.00
2463;DHT22;1243;54.298;10.172;2023-06-10T06:58:04;16.40;1.00
2463;DHT22;1243;54.298;10.172;2023-06-10T07:00:30;16.40;1.00
2463;DHT22;1243;54.298;10.172;2023-06-10T07:02:56;16.40;1.00
2463;DHT22;1243;54.298;10.172;2023-06-10T07:05:23;16.50;1.00
2463;DHT22;1243;54.298;10.172;2023-06-10T07:07:50;16.60;1.00
2463;DHT22;1243;54.298;10.172;2023-06-10T07:10:23;16.70;1.00
2463;DHT22;1243;54.298;10.172;2023-06-10T07:12:49;16.80;1.00
2463;DHT22;1243;54.298;10.172;2023-06-10T07:15:15;16.80;1.00
2463;DHT22;1243;54.298;10.172;2023-06-10T07:17:41;16.70;1.00
2463;DHT22;1243;54.298;10.172;2023-06-10T07:20:07;16.70;1.00
2463;DHT22;1243;54.298;10.172;2023-06-10T07:22:33;16.80;1.00
2463;DHT22;1243;54.298;10.172;2023-06-10T07:24:59;16.70;1.00
2463;DHT22;1243;54.298;10.172;2023-06-10T07:27:25;16.70;1.00
2463;DHT22;1243;54.298;10.172;2023-06-10T07:29:51;16.70;1.00
2463;DHT22;1243;54.298;10.172;2023-06-10T07:32:17;16.90;1.00
2463;DHT22;1243;54.298;10.172;2023-06-10T07:34:43;17.10;1.00
2463;DHT22;1243;54.298;10.172;2023-06-10T07:37:09;17.10;1.00
2463;DHT22;1243;54.298;10.172;2023-06-10T07:39:35;17.00;1.00
2463;DHT22;1243;54.298;10.172;2023-06-10T07:42:01;17.00;1.00
2463;DHT22;1243;54.298;10.172;2023-06-10T07:44:26;17.00;1.00
2463;DHT22;1243;54.298;10.172;2023-06-10T07:46:52;17.00;1.00
2463;DHT22;1243;54.298;10.172;2023-06-10T07:49:18;16.90;1.00
2463;DHT22;1243;54.298;10.172;2023-06-10T07:51:43;16.90;1.00
2463;DHT22;1243;54.298;10.172;2023-06-10T07:54:10;17.00;1.00
2463;DHT22;1243;54.298;10.172;2023-06-10T07:56:37;17.00;1.00
2463;DHT22;1243;54.298;10.172;2023-06-10T07:59:03;17.10;1.00
2463;DHT22;1243;54.298;10.172;2023-06-10T08:01:29;17.30;1.00
2463;DHT22;1243;54.298;10.172;2023-06-10T08:03:55;17.50;1.00
2463;DHT22;1243;54.298;10.172;2023-06-10T08:06:21;17.60;1.00
2463;DHT22;1243;54.298;10.172;2023-06-10T08:08:47;17.60;1.00
2463;DHT22;1243;54.298;10.172;2023-06-10T08:11:13;17.80;1.00
2463;DHT22;1243;54.298;10.172;2023-06-10T08:13:38;17.90;1.00
2463;DHT22;1243;54.298;10.172;2023-06-10T08:16:05;17.90;1.00
2463;DHT22;1243;54.298;10.172;2023-06-10T08:18:31;17.70;1.00
2463;DHT22;1243;54.298;10.172;2023-06-10T08:20:57;17.50;1.00
2463;DHT22;1243;54.298;10.172;2023-06-10T08:23:23;17.50;1.00
2463;DHT22;1243;54.298;10.172;2023-06-10T08:25:48;17.60;1.00
2463;DHT22;1243;54.298;10.172;2023-06-10T08:28:14;17.80;1.00
2463;DHT22;1243;54.298;10.172;2023-06-10T08:30:40;17.60;1.00
2463;DHT22;1243;54.298;10.172;2023-06-10T08:33:06;17.60;1.00
2463;DHT22;1243;54.298;10.172;2023-06-10T08:35:31;17.80;1.00
2463;DHT22;1243;54.298;10.172;2023-06-10T08:37:57;18.00;1.00
2463;DHT22;1243;54.298;10.172;2023-06-10T08:40:23;18.20;1.00
2463;DHT22;1243;54.298;10.172;2023-06-10T08:42:58;18.30;1.00
2463;DHT22;1243;54.298;10.172;2023-06-10T08:45:29;18.30;1.00
2463;DHT22;1243;54.298;10.172;2023-06-10T08:47:57;18.10;1.00
2463;DHT22;1243;54.298;10.172;2023-06-10T08:50:24;18.20;1.00
2463;DHT22;1243;54.298;10.172;2023-06-10T08:52:54;18.20;1.00
2463;DHT22;1243;54.298;10.172;2023-06-10T08:55:27;18.20;1.00
2463;DHT22;1243;54.298;10.172;2023-06-10T08:57:55;18.30;1.00
2463;DHT22;1243;54.298;10.172;2023-06-10T09:00:21;18.50;1.00
2463;DHT22;1243;54.298;10.172;2023-06-10T09:02:47;18.80;1.00
2463;DHT22;1243;54.298;10.172;2023-06-10T09:05:13;19.00;1.00
2463;DHT22;1243;54.298;10.172;2023-06-10T09:07:39;19.30;1.00
2463;DHT22;1243;54.298;10.172;2023-06-10T09:10:05;19.60;1.00
2463;DHT22;1243;54.298;10.172;2023-06-10T09:12:33;19.40;1.00
2463;DHT22;1243;54.298;10.172;2023-06-10T09:14:59;19.30;1.00
2463;DHT22;1243;54.298;10.172;2023-06-10T09:17:27;19.50;1.00
2463;DHT22;1243;54.298;10.172;2023-06-10T09:19:52;19.80;1.00
2463;DHT22;1243;54.298;10.172;2023-06-10T09:22:23;20.00;1.00
2463;DHT22;1243;54.298;10.172;2023-06-10T09:24:50;19.90;1.00
2463;DHT22;1243;54.298;10.172;2023-06-10T09:27:16;19.80;1.00
2463;DHT22;1243;54.298;10.172;2023-06-10T09:29:52;20.10;1.00
2463;DHT22;1243;54.298;10.172;2023-06-10T09:32:19;20.50;1.00
2463;DHT22;1243;54.298;10.172;2023-06-10T09:34:46;20.50;1.00
2463;DHT22;1243;54.298;10.172;2023-06-10T09:37:12;20.70;1.00
2463;DHT22;1243;54.298;10.172;2023-06-10T09:39:40;20.80;1.00
2463;DHT22;1243;54.298;10.172;2023-06-10T09:42:18;20.40;1.00
2463;DHT22;1243;54.298;10.172;2023-06-10T09:44:51;20.60;1.00
2463;DHT22;1243;54.298;10.172;2023-06-10T09:47:23;20.80;1.00
2463;DHT22;1243;54.298;10.172;2023-06-10T09:49:51;21.10;1.00
2463;DHT22;1243;54.298;10.172;2023-06-10T09:52:24;21.30;1.00
2463;DHT22;1243;54.298;10.172;2023-06-10T09:54:54;21.40;1.00
2463;DHT22;1243;54.298;10.172;2023-06-10T09:57:21;21.70;1.00
2463;DHT22;1243;54.298;10.172;2023-06-10T09:59:47;21.40;1.00
2463;DHT22;1243;54.298;10.172;2023-06-10T10:02:17;21.50;1.00
2463;DHT22;1243;54.298;10.172;2023-06-10T10:04:44;22.10;1.00
2463;DHT22;1243;54.298;10.172;2023-06-10T10:07:10;22.60;1.00
2463;DHT22;1243;54.298;10.172;2023-06-10T10:09:42;23.00;1.00
2463;DHT22;1243;54.298;10.172;2023-06-10T10:12:12;22.70;1.00
2463;DHT22;1243;54.298;10.172;2023-06-10T10:14:39;22.40;1.00
2463;DHT22;1243;54.298;10.172;2023-06-10T10:17:10;22.30;99.90
2463;DHT22;1243;54.298;10.172;2023-06-10T10:19:53;22.50;99.90
2463;DHT22;1243;54.298;10.172;2023-06-10T10:22:23;22.10;99.90
2463;DHT22;1243;54.298;10.172;2023-06-10T10:24:52;22.30;99.90
2463;DHT22;1243;54.298;10.172;2023-06-10T10:27:26;22.50;99.90
2463;DHT22;1243;54.298;10.172;2023-06-10T10:29:54;22.50;99.90
2463;DHT22;1243;54.298;10.172;2023-06-10T10:32:29;22.30;99.90
2463;DHT22;1243;54.298;10.172;2023-06-10T10:35:07;22.40;99.90
2463;DHT22;1243;54.298;10.172;2023-06-10T10:37:35;22.90;99.90
2463;DHT22;1243;54.298;10.172;2023-06-10T10:40:01;23.40;99.90
2463;DHT22;1243;54.298;10.172;2023-06-10T10:42:29;23.20;99.90
2463;DHT22;1243;54.298;10.172;2023-06-10T10:44:55;23.00;99.90
2463;DHT22;1243;54.298;10.172;2023-06-10T10:47:21;22.60;99.90
2463;DHT22;1243;54.298;10.172;2023-06-10T10:49:50;22.80;99.90
2463;DHT22;1243;54.298;10.172;2023-06-10T10:52:16;23.40;99.90
2463;DHT22;1243;54.298;10.172;2023-06-10T10:54:46;23.70;99.90
2463;DHT22;1243;54.298;10.172;2023-06-10T10:57:13;23.70;99.90
2463;DHT22;1243;54.298;10.172;2023-06-10T11:02:41;24.00;99.90
2463;DHT22;1243;54.298;10.172;2023-06-10T11:05:10;23.90;99.90
2463;DHT22;1243;54.298;10.172;2023-06-10T11:07:36;23.80;99.90
2463;DHT22;1243;54.298;10.172;2023-06-10T11:10:06;23.40;99.90
2463;DHT22;1243;54.298;10.172;2023-06-10T11:12:59;23.60;99.90
2463;DHT22;1243;54.298;10.172;2023-06-10T11:15:29;24.20;99.90
2463;DHT22;1243;54.298;10.172;2023-06-10T11:18:20;23.90;99.90
2463;DHT22;1243;54.298;10.172;2023-06-10T11:26:15;24.00;99.90
2463;DHT22;1243;54.298;10.172;2023-06-10T11:28:42;24.20;99.90
2463;DHT22;1243;54.298;10.172;2023-06-10T11:31:34;24.60;99.90
2463;DHT22;1243;54.298;10.172;2023-06-10T11:34:04;24.50;99.90
2463;DHT22;1243;54.298;10.172;2023-06-10T11:36:32;24.60;99.90
2463;DHT22;1243;54.298;10.172;2023-06-10T11:39:08;24.90;99.90
2463;DHT22;1243;54.298;10.172;2023-06-10T11:41:36;24.80;99.90
2463;DHT22;1243;54.298;10.172;2023-06-10T11:44:10;24.50;99.90
2463;DHT22;1243;54.298;10.172;2023-06-10T11:46:37;25.00;99.90
2463;DHT22;1243;54.298;10.172;2023-06-10T11:49:03;24.80;99.90
2463;DHT22;1243;54.298;10.172;2023-06-10T11:51:31;25.10;99.90
2463;DHT22;1243;54.298;10.172;2023-06-10T11:53:57;25.50;99.90
2463;DHT22;1243;54.298;10.172;2023-06-10T11:56:25;25.20;99.90
2463;DHT22;1243;54.298;10.172;2023-06-10T11:59:02;24.80;99.90
2463;DHT22;1243;54.298;10.172;2023-06-10T12:01:31;24.90;99.90
2463;DHT22;1243;54.298;10.172;2023-06-10T12:04:05;24.50;99.90
2463;DHT22;1243;54.298;10.172;2023-06-10T12:06:48;24.60;99.90
2463;DHT22;1243;54.298;10.172;2023-06-10T12:14:51;26.30;99.90
2463;DHT22;1243;54.298;10.172;2023-06-10T12:20:04;25.80;99.90
2463;DHT22;1243;54.298;10.172;2023-06-10T12:22:43;25.60;99.90
2463;DHT22;1243;54.298;10.172;2023-06-10T12:25:10;25.60;99.90
2463;DHT22;1243;54.298;10.172;2023-06-10T12:27:38;26.00;99.90
2463;DHT22;1243;54.298;10.172;2023-06-10T12:30:05;25.80;99.90
2463;DHT22;1243;54.298;10.172;2023-06-10T12:32:44;25.90;99.90
2463;DHT22;1243;54.298;10.172;2023-06-10T12:35:11;26.00;99.90
2463;DHT22;1243;54.298;10.172;2023-06-10T12:37:39;25.90;99.90
2463;DHT22;1243;54.298;10.172;2023-06-10T12:40:05;24.90;99.90
2463;DHT22;1243;54.298;10.172;2023-06-10T12:42:32;24.70;99.90
2463;DHT22;1243;54.298;10.172;2023-06-10T12:45:00;25.00;99.90
2463;DHT22;1243;54.298;10.172;2023-06-10T12:47:44;24.70;99.90
2463;DHT22;1243;54.298;10.172;2023-06-10T12:50:10;24.30;99.90
2463;DHT22;1243;54.298;10.172;2023-06-10T12:52:37;24.30;99.90
2463;DHT22;1243;54.298;10.172;2023-06-10T12:55:04;23.90;99.90
2463;DHT22;1243;54.298;10.172;2023-06-10T12:57:30;23.90;99.90
2463;DHT22;1243;54.298;10.172;2023-06-10T12:59:56;24.00;99.90
2463;DHT22;1243;54.298;10.172;2023-06-10T13:02:28;24.20;99.90
2463;DHT22;1243;54.298;10.172;2023-06-10T13:04:54;24.20;99.90
2463;DHT22;1243;54.298;10.172;2023-06-10T13:07:20;24.00;99.90
2463;DHT22;1243;54.298;10.172;2023-06-10T13:09:48;24.50;99.90
2463;DHT22;1243;54.298;10.172;2023-06-10T13:12:14;24.90;99.90
2463;DHT22;1243;54.298;10.172;2023-06-10T13:14:40;25.40;99.90
2463;DHT22;1243;54.298;10.172;2023-06-10T13:17:05;25.10;99.90
2463;DHT22;1243;54.298;10.172;2023-06-10T13:19:32;25.30;99.90
2463;DHT22;1243;54.298;10.172;2023-06-10T13:21:58;25.30;99.90
2463;DHT22;1243;54.298;10.172;2023-06-10T13:24:24;25.60;99.90
2463;DHT22;1243;54.298;10.172;2023-06-10T13:26:50;26.00;99.90
2463;DHT22;1243;54.298;10.172;2023-06-10T13:29:16;25.50;99.90
2463;DHT22;1243;54.298;10.172;2023-06-10T13:31:41;25.30;99.90
2463;DHT22;1243;54.298;10.172;2023-06-10T13:34:08;25.10;99.90
2463;DHT22;1243;54.298;10.172;2023-06-10T13:36:33;24.60;99.90
2463;DHT22;1243;54.298;10.172;2023-06-10T13:38:59;25.00;99.90
2463;DHT22;1243;54.298;10.172;2023-06-10T13:41:25;24.50;99.90
2463;DHT22;1243;54.298;10.172;2023-06-10T13:43:54;24.60;99.90
2463;DHT22;1243;54.298;10.172;2023-06-10T13:46:20;24.10;99.90
2463;DHT22;1243;54.298;10.172;2023-06-10T13:48:47;23.90;99.90
2463;DHT22;1243;54.298;10.172;2023-06-10T13:51:12;23.80;99.90
2463;DHT22;1243;54.298;10.172;2023-06-10T13:53:38;23.80;99.90
2463;DHT22;1243;54.298;10.172;2023-06-10T13:56:04;23.60;99.90
2463;DHT22;1243;54.298;10.172;2023-06-10T13:58:29;23.10;99.90
2463;DHT22;1243;54.298;10.172;2023-06-10T14:00:55;22.60;99.90
2463;DHT22;1243;54.298;10.172;2023-06-10T14:03:21;22.80;99.90
2463;DHT22;1243;54.298;10.172;2023-06-10T14:05:47;23.00;99.90
2463;DHT22;1243;54.298;10.172;2023-06-10T14:08:13;22.90;99.90
2463;DHT22;1243;54.298;10.172;2023-06-10T14:10:39;23.00;99.90
2463;DHT22;1243;54.298;10.172;2023-06-10T14:13:05;23.30;99.90
2463;DHT22;1243;54.298;10.172;2023-06-10T14:15:31;23.60;99.90
2463;DHT22;1243;54.298;10.172;2023-06-10T14:17:57;23.50;99.90
2463;DHT22;1243;54.298;10.172;2023-06-10T14:20:23;23.30;99.90
2463;DHT22;1243;54.298;10.172;2023-06-10T14:22:50;23.30;99.90
2463;DHT22;1243;54.298;10.172;2023-06-10T14:25:16;23.20;99.90
2463;DHT22;1243;54.298;10.172;2023-06-10T14:27:43;23.50;99.90
2463;DHT22;1243;54.298;10.172;2023-06-10T14:30:09;23.40;99.90
2463;DHT22;1243;54.298;10.172;2023-06-10T14:32:34;23.20;99.90
2463;DHT22;1243;54.298;10.172;2023-06-10T14:35:00;23.20;99.90
2463;DHT22;1243;54.298;10.172;2023-06-10T14:37:26;23.60;99.90
2463;DHT22;1243;54.298;10.172;2023-06-10T14:39:52;23.70;99.90
2463;DHT22;1243;54.298;10.172;2023-06-10T14:42:17;23.50;99.90
2463;DHT22;1243;54.298;10.172;2023-06-10T14:44:43;23.40;99.90
2463;DHT22;1243;54.298;10.172;2023-06-10T14:47:09;23.50;99.90
2463;DHT22;1243;54.298;10.172;2023-06-10T14:49:34;23.50;99.90
2463;DHT22;1243;54.298;10.172;2023-06-10T14:52:00;23.10;99.90
2463;DHT22;1243;54.298;10.172;2023-06-10T14:54:26;22.90;99.90
2463;DHT22;1243;54.298;10.172;2023-06-10T14:56:52;22.60;99.90
2463;DHT22;1243;54.298;10.172;2023-06-10T14:59:17;22.70;99.90
2463;DHT22;1243;54.298;10.172;2023-06-10T15:01:43;22.40;99.90
2463;DHT22;1243;54.298;10.172;2023-06-10T15:04:09;22.20;99.90
2463;DHT22;1243;54.298;10.172;2023-06-10T15:06:34;22.10;99.90
2463;DHT22;1243;54.298;10.172;2023-06-10T15:09:00;22.20;99.90
2463;DHT22;1243;54.298;10.172;2023-06-10T15:11:26;22.00;99.90
2463;DHT22;1243;54.298;10.172;2023-06-10T15:13:51;22.20;99.90
2463;DHT22;1243;54.298;10.172;2023-06-10T15:16:17;22.20;99.90
2463;DHT22;1243;54.298;10.172;2023-06-10T15:18:43;22.20;99.90
2463;DHT22;1243;54.298;10.172;2023-06-10T15:21:08;22.30;99.90
2463;DHT22;1243;54.298;10.172;2023-06-10T15:23:34;22.50;99.90
2463;DHT22;1243;54.298;10.172;2023-06-10T15:26:00;22.30;99.90
2463;DHT22;1243;54.298;10.172;2023-06-10T15:28:26;22.20;99.90
2463;DHT22;1243;54.298;10.172;2023-06-10T15:30:51;22.00;99.90
2463;DHT22;1243;54.298;10.172;2023-06-10T15:33:17;22.20;99.90
2463;DHT22;1243;54.298;10.172;2023-06-10T15:35:43;22.20;99.90
2463;DHT22;1243;54.298;10.172;2023-06-10T15:38:09;22.10;99.90
2463;DHT22;1243;54.298;10.172;2023-06-10T15:40:34;21.70;99.90
2463;DHT22;1243;54.298;10.172;2023-06-10T15:43:01;21.70;99.90
2463;DHT22;1243;54.298;10.172;2023-06-10T15:45:26;21.70;99.90
2463;DHT22;1243;54.298;10.172;2023-06-10T15:47:52;22.10;99.90
2463;DHT22;1243;54.298;10.172;2023-06-10T15:50:18;22.50;99.90
2463;DHT22;1243;54.298;10.172;2023-06-10T15:52:44;22.70;99.90
2463;DHT22;1243;54.298;10.172;2023-06-10T15:55:10;22.80;99.90
2463;DHT22;1243;54.298;10.172;2023-06-10T15:57:35;22.60;99.90
2463;DHT22;1243;54.298;10.172;2023-06-10T16:00:01;22.30;99.90
2463;DHT22;1243;54.298;10.172;2023-06-10T16:02:27;22.10;99.90
2463;DHT22;1243;54.298;10.172;2023-06-10T16:04:54;22.30;99.90
2463;DHT22;1243;54.298;10.172;2023-06-10T16:07:19;22.60;99.90
2463;DHT22;1243;54.298;10.172;2023-06-10T16:09:45;23.10;99.90
2463;DHT22;1243;54.298;10.172;2023-06-10T16:12:11;23.10;99.90